sensor_id;sensor_type;location;lat;lon;timestamp;P1;durP1;ratioP1;P2;durP2;ratioP2
16189;SDS011;41754;51.498;7.540;2022-09-09T00:01:41;3.28;;;1.33;;
16189;SDS011;41754;51.498;7.540;2022-09-09T00:04:13;4.35;;;1.48;;
16189;SDS011;41754;51.498;7.540;2022-09-09T00:06:43;3.80;;;1.27;;
16189;SDS011;41754;51.498;7.540;2022-09-09T00:09:15;3.90;;;1.45;;
16189;SDS011;41754;51.498;7.540;2022-09-09T00:11:46;2.70;;;1.30;;
16189;SDS011;41754;51.498;7.540;2022-09-09T00:14:18;2.20;;;1.20;;
16189;SDS011;41754;51.498;7.540;2022-09-09T00:16:53;3.15;;;1.50;;
16189;SDS011;41754;51.498;7.540;2022-09-09T00:19:24;3.13;;;1.40;;
16189;SDS011;41754;51.498;7.540;2022-09-09T00:21:59;2.97;;;1.30;;
16189;SDS011;41754;51.498;7.540;2022-09-09T00:24:36;2.92;;;1.40;;
16189;SDS011;41754;51.498;7.540;2022-09-09T00:27:07;2.87;;;1.37;;
16189;SDS011;41754;51.498;7.540;2022-09-09T00:29:40;4.03;;;1.50;;
16189;SDS011;41754;51.498;7.540;2022-09-09T00:32:13;3.60;;;1.60;;
16189;SDS011;41754;51.498;7.540;2022-09-09T00:34:47;4.05;;;1.55;;
16189;SDS011;41754;51.498;7.540;2022-09-09T00:37:16;3.58;;;1.30;;
16189;SDS011;41754;51.498;7.540;2022-09-09T00:39:44;3.60;;;1.50;;
16189;SDS011;41754;51.498;7.540;2022-09-09T00:42:15;4.00;;;1.50;;
16189;SDS011;41754;51.498;7.540;2022-09-09T00:44:51;4.60;;;1.30;;
16189;SDS011;41754;51.498;7.540;2022-09-09T00:47:27;3.03;;;1.35;;
16189;SDS011;41754;51.498;7.540;2022-09-09T00:50:03;2.95;;;1.50;;
16189;SDS011;41754;51.498;7.540;2022-09-09T00:52:40;4.00;;;1.45;;
16189;SDS011;41754;51.498;7.540;2022-09-09T00:55:13;1.98;;;1.25;;
16189;SDS011;41754;51.498;7.540;2022-09-09T00:57:45;3.53;;;1.30;;
16189;SDS011;41754;51.498;7.540;2022-09-09T01:00:18;2.08;;;1.10;;
16189;SDS011;41754;51.498;7.540;2022-09-09T01:06:00;2.67;;;1.30;;
16189;SDS011;41754;51.498;7.540;2022-09-09T01:08:39;2.97;;;1.20;;
16189;SDS011;41754;51.498;7.540;2022-09-09T01:11:15;2.92;;;1.27;;
16189;SDS011;41754;51.498;7.540;2022-09-09T01:13:49;3.03;;;1.30;;
16189;SDS011;41754;51.498;7.540;2022-09-09T01:16:21;4.57;;;1.60;;
16189;SDS011;41754;51.498;7.540;2022-09-09T01:18:51;4.53;;;1.50;;
16189;SDS011;41754;51.498;7.540;2022-09-09T01:21:24;4.13;;;1.52;;
16189;SDS011;41754;51.498;7.540;2022-09-09T01:24:03;3.05;;;1.60;;
16189;SDS011;41754;51.498;7.540;2022-09-09T01:26:52;4.67;;;1.67;;
16189;SDS011;41754;51.498;7.540;2022-09-09T01:29:25;4.70;;;1.52;;
16189;SDS011;41754;51.498;7.540;2022-09-09T01:31:54;2.88;;;1.75;;
16189;SDS011;41754;51.498;7.540;2022-09-09T01:34:23;3.83;;;1.70;;
16189;SDS011;41754;51.498;7.540;2022-09-09T01:36:53;3.40;;;1.70;;
16189;SDS011;41754;51.498;7.540;2022-09-09T01:39:25;4.20;;;1.85;;
16189;SDS011;41754;51.498;7.540;2022-09-09T01:42:00;2.67;;;1.70;;
16189;SDS011;41754;51.498;7.540;2022-09-09T01:44:29;5.00;;;1.95;;
16189;SDS011;41754;51.498;7.540;2022-09-09T01:46:57;5.95;;;1.80;;
16189;SDS011;41754;51.498;7.540;2022-09-09T01:49:25;4.47;;;1.80;;
16189;SDS011;41754;51.498;7.540;2022-09-09T01:51:55;5.93;;;1.70;;
16189;SDS011;41754;51.498;7.540;2022-09-09T01:54:31;4.10;;;1.80;;
16189;SDS011;41754;51.498;7.540;2022-09-09T01:57:08;5.88;;;2.03;;
16189;SDS011;41754;51.498;7.540;2022-09-09T01:59:48;3.88;;;1.60;;
16189;SDS011;41754;51.498;7.540;2022-09-09T02:02:23;4.65;;;1.60;;
16189;SDS011;41754;51.498;7.540;2022-09-09T02:05:07;3.95;;;1.60;;
16189;SDS011;41754;51.498;7.540;2022-09-09T02:07:42;4.63;;;1.80;;
16189;SDS011;41754;51.498;7.540;2022-09-09T02:10:24;5.30;;;1.70;;
16189;SDS011;41754;51.498;7.540;2022-09-09T02:13:09;4.10;;;1.50;;
16189;SDS011;41754;51.498;7.540;2022-09-09T02:15:40;4.38;;;1.60;;
16189;SDS011;41754;51.498;7.540;2022-09-09T02:18:11;3.25;;;1.40;;
16189;SDS011;41754;51.498;7.540;2022-09-09T02:20:41;3.38;;;1.70;;
16189;SDS011;41754;51.498;7.540;2022-09-09T02:23:10;4.05;;;1.75;;
16189;SDS011;41754;51.498;7.540;2022-09-09T02:25:39;4.45;;;1.60;;
16189;SDS011;41754;51.498;7.540;2022-09-09T02:28:17;2.33;;;1.60;;
16189;SDS011;41754;51.498;7.540;2022-09-09T02:30:47;3.20;;;1.40;;
16189;SDS011;41754;51.498;7.540;2022-09-09T02:33:19;3.40;;;1.42;;
16189;SDS011;41754;51.498;7.540;2022-09-09T02:35:49;4.80;;;1.60;;
16189;SDS011;41754;51.498;7.540;2022-09-09T02:38:21;4.35;;;1.40;;
16189;SDS011;41754;51.498;7.540;2022-09-09T02:41:00;4.60;;;1.60;;
16189;SDS011;41754;51.498;7.540;2022-09-09T02:43:32;3.85;;;1.50;;
16189;SDS011;41754;51.498;7.540;2022-09-09T02:46:07;3.55;;;1.40;;
16189;SDS011;41754;51.498;7.540;2022-09-09T02:48:39;3.35;;;1.35;;
16189;SDS011;41754;51.498;7.540;2022-09-09T02:51:14;3.63;;;1.45;;
16189;SDS011;41754;51.498;7.540;2022-09-09T02:53:47;4.07;;;1.45;;
16189;SDS011;41754;51.498;7.540;2022-09-09T02:56:18;2.60;;;1.40;;
16189;SDS011;41754;51.498;7.540;2022-09-09T02:58:50;3.67;;;1.33;;
16189;SDS011;41754;51.498;7.540;2022-09-09T03:01:18;3.67;;;1.40;;
16189;SDS011;41754;51.498;7.540;2022-09-09T03:03:46;3.80;;;1.52;;
16189;SDS011;41754;51.498;7.540;2022-09-09T03:06:15;4.57;;;1.50;;
16189;SDS011;41754;51.498;7.540;2022-09-09T03:08:48;3.53;;;1.50;;
16189;SDS011;41754;51.498;7.540;2022-09-09T03:11:21;5.30;;;1.50;;
16189;SDS011;41754;51.498;7.540;2022-09-09T03:13:51;5.47;;;1.40;;
16189;SDS011;41754;51.498;7.540;2022-09-09T03:16:20;3.33;;;1.20;;
16189;SDS011;41754;51.498;7.540;2022-09-09T03:18:50;3.78;;;1.65;;
16189;SDS011;41754;51.498;7.540;2022-09-09T03:21:19;4.90;;;1.52;;
16189;SDS011;41754;51.498;7.540;2022-09-09T03:23:48;3.60;;;1.42;;
16189;SDS011;41754;51.498;7.540;2022-09-09T03:26:16;3.42;;;1.40;;
16189;SDS011;41754;51.498;7.540;2022-09-09T03:28:45;4.07;;;1.40;;
16189;SDS011;41754;51.498;7.540;2022-09-09T03:31:18;4.10;;;1.50;;
16189;SDS011;41754;51.498;7.540;2022-09-09T03:33:46;4.50;;;1.50;;
16189;SDS011;41754;51.498;7.540;2022-09-09T03:36:15;3.75;;;1.40;;
16189;SDS011;41754;51.498;7.540;2022-09-09T03:38:43;4.50;;;1.80;;
16189;SDS011;41754;51.498;7.540;2022-09-09T03:41:11;4.18;;;1.40;;
16189;SDS011;41754;51.498;7.540;2022-09-09T03:43:39;5.18;;;1.55;;
16189;SDS011;41754;51.498;7.540;2022-09-09T03:46:08;4.07;;;1.40;;
16189;SDS011;41754;51.498;7.540;2022-09-09T03:48:37;3.63;;;1.60;;
16189;SDS011;41754;51.498;7.540;2022-09-09T03:51:05;5.00;;;1.60;;
16189;SDS011;41754;51.498;7.540;2022-09-09T03:53:34;3.43;;;1.50;;
16189;SDS011;41754;51.498;7.540;2022-09-09T03:56:02;5.13;;;1.40;;
16189;SDS011;41754;51.498;7.540;2022-09-09T03:58:30;4.65;;;1.65;;
16189;SDS011;41754;51.498;7.540;2022-09-09T04:01:04;4.50;;;1.53;;
16189;SDS011;41754;51.498;7.540;2022-09-09T04:03:34;4.80;;;1.57;;
16189;SDS011;41754;51.498;7.540;2022-09-09T04:06:05;4.57;;;1.55;;
16189;SDS011;41754;51.498;7.540;2022-09-09T04:08:36;3.88;;;1.70;;
16189;SDS011;41754;51.498;7.540;2022-09-09T04:11:05;5.25;;;1.95;;
16189;SDS011;41754;51.498;7.540;2022-09-09T04:13:35;4.22;;;1.90;;
16189;SDS011;41754;51.498;7.540;2022-09-09T04:16:04;2.57;;;1.27;;
16189;SDS011;41754;51.498;7.540;2022-09-09T04:18:34;3.92;;;1.70;;
16189;SDS011;41754;51.498;7.540;2022-09-09T04:21:04;4.65;;;1.67;;
16189;SDS011;41754;51.498;7.540;2022-09-09T04:23:34;3.38;;;1.60;;
16189;SDS011;41754;51.498;7.540;2022-09-09T04:26:03;4.57;;;1.80;;
16189;SDS011;41754;51.498;7.540;2022-09-09T04:28:33;3.40;;;1.53;;
16189;SDS011;41754;51.498;7.540;2022-09-09T04:31:05;3.47;;;1.45;;
16189;SDS011;41754;51.498;7.540;2022-09-09T04:33:34;5.15;;;1.77;;
16189;SDS011;41754;51.498;7.540;2022-09-09T04:36:07;4.03;;;1.70;;
16189;SDS011;41754;51.498;7.540;2022-09-09T04:38:36;4.57;;;1.73;;
16189;SDS011;41754;51.498;7.540;2022-09-09T04:41:04;5.68;;;1.80;;
16189;SDS011;41754;51.498;7.540;2022-09-09T04:43:35;4.00;;;1.40;;
16189;SDS011;41754;51.498;7.540;2022-09-09T04:46:05;3.58;;;1.60;;
16189;SDS011;41754;51.498;7.540;2022-09-09T04:48:34;3.92;;;1.48;;
16189;SDS011;41754;51.498;7.540;2022-09-09T04:51:04;5.65;;;1.67;;
16189;SDS011;41754;51.498;7.540;2022-09-09T04:53:36;4.43;;;1.57;;
16189;SDS011;41754;51.498;7.540;2022-09-09T04:56:05;4.78;;;1.50;;
16189;SDS011;41754;51.498;7.540;2022-09-09T04:58:38;5.28;;;1.60;;
16189;SDS011;41754;51.498;7.540;2022-09-09T05:01:09;5.28;;;1.67;;
16189;SDS011;41754;51.498;7.540;2022-09-09T05:03:40;4.73;;;1.50;;
16189;SDS011;41754;51.498;7.540;2022-09-09T05:06:11;4.40;;;1.80;;
16189;SDS011;41754;51.498;7.540;2022-09-09T05:08:41;4.57;;;1.70;;
16189;SDS011;41754;51.498;7.540;2022-09-09T05:11:15;5.53;;;1.93;;
16189;SDS011;41754;51.498;7.540;2022-09-09T05:13:44;5.47;;;2.13;;
16189;SDS011;41754;51.498;7.540;2022-09-09T05:16:13;5.15;;;1.83;;
16189;SDS011;41754;51.498;7.540;2022-09-09T05:18:41;5.53;;;2.00;;
16189;SDS011;41754;51.498;7.540;2022-09-09T05:21:10;5.07;;;1.80;;
16189;SDS011;41754;51.498;7.540;2022-09-09T05:23:38;5.20;;;1.80;;
16189;SDS011;41754;51.498;7.540;2022-09-09T05:26:09;4.70;;;1.80;;
16189;SDS011;41754;51.498;7.540;2022-09-09T05:28:44;6.30;;;2.33;;
16189;SDS011;41754;51.498;7.540;2022-09-09T05:31:14;4.90;;;1.95;;
16189;SDS011;41754;51.498;7.540;2022-09-09T05:33:45;4.88;;;1.80;;
16189;SDS011;41754;51.498;7.540;2022-09-09T05:36:16;4.68;;;1.70;;
16189;SDS011;41754;51.498;7.540;2022-09-09T05:38:46;4.65;;;1.73;;
16189;SDS011;41754;51.498;7.540;2022-09-09T05:41:17;4.70;;;1.58;;
16189;SDS011;41754;51.498;7.540;2022-09-09T05:43:46;5.15;;;1.70;;
16189;SDS011;41754;51.498;7.540;2022-09-09T05:46:16;6.18;;;1.67;;
16189;SDS011;41754;51.498;7.540;2022-09-09T05:48:46;4.57;;;1.80;;
16189;SDS011;41754;51.498;7.540;2022-09-09T05:51:19;4.47;;;1.60;;
16189;SDS011;41754;51.498;7.540;2022-09-09T05:53:48;5.63;;;2.33;;
16189;SDS011;41754;51.498;7.540;2022-09-09T05:56:19;5.63;;;1.88;;
16189;SDS011;41754;51.498;7.540;2022-09-09T05:58:49;5.45;;;1.63;;
16189;SDS011;41754;51.498;7.540;2022-09-09T06:01:18;6.60;;;1.80;;
16189;SDS011;41754;51.498;7.540;2022-09-09T06:03:47;4.50;;;1.65;;
16189;SDS011;41754;51.498;7.540;2022-09-09T06:06:17;5.75;;;1.80;;
16189;SDS011;41754;51.498;7.540;2022-09-09T06:08:47;4.30;;;1.60;;
16189;SDS011;41754;51.498;7.540;2022-09-09T06:11:19;2.95;;;1.40;;
16189;SDS011;41754;51.498;7.540;2022-09-09T06:13:48;7.90;;;1.80;;
16189;SDS011;41754;51.498;7.540;2022-09-09T06:16:18;4.60;;;1.60;;
16189;SDS011;41754;51.498;7.540;2022-09-09T06:18:47;6.65;;;1.50;;
16189;SDS011;41754;51.498;7.540;2022-09-09T06:21:16;4.30;;;1.60;;
16189;SDS011;41754;51.498;7.540;2022-09-09T06:23:45;4.90;;;1.60;;
16189;SDS011;41754;51.498;7.540;2022-09-09T06:26:15;5.18;;;1.65;;
16189;SDS011;41754;51.498;7.540;2022-09-09T06:28:46;6.45;;;1.85;;
16189;SDS011;41754;51.498;7.540;2022-09-09T06:31:16;4.85;;;1.70;;
16189;SDS011;41754;51.498;7.540;2022-09-09T06:33:53;4.65;;;1.70;;
16189;SDS011;41754;51.498;7.540;2022-09-09T06:36:23;4.93;;;1.65;;
16189;SDS011;41754;51.498;7.540;2022-09-09T06:38:52;4.90;;;1.60;;
16189;SDS011;41754;51.498;7.540;2022-09-09T06:41:21;5.03;;;1.65;;
16189;SDS011;41754;51.498;7.540;2022-09-09T06:43:51;5.45;;;1.80;;
16189;SDS011;41754;51.498;7.540;2022-09-09T06:46:27;4.28;;;1.45;;
16189;SDS011;41754;51.498;7.540;2022-09-09T06:48:56;4.47;;;1.50;;
16189;SDS011;41754;51.498;7.540;2022-09-09T06:51:26;4.10;;;1.25;;
16189;SDS011;41754;51.498;7.540;2022-09-09T06:53:57;4.20;;;1.58;;
16189;SDS011;41754;51.498;7.540;2022-09-09T06:56:27;3.22;;;1.30;;
16189;SDS011;41754;51.498;7.540;2022-09-09T06:58:59;5.97;;;1.80;;
16189;SDS011;41754;51.498;7.540;2022-09-09T07:01:31;5.07;;;1.42;;
16189;SDS011;41754;51.498;7.540;2022-09-09T07:04:03;4.20;;;1.43;;
16189;SDS011;41754;51.498;7.540;2022-09-09T07:06:36;5.32;;;1.60;;
16189;SDS011;41754;51.498;7.540;2022-09-09T07:09:06;4.53;;;1.52;;
16189;SDS011;41754;51.498;7.540;2022-09-09T07:11:38;3.78;;;1.42;;
16189;SDS011;41754;51.498;7.540;2022-09-09T07:14:10;5.13;;;1.40;;
16189;SDS011;41754;51.498;7.540;2022-09-09T07:16:43;3.33;;;1.23;;
16189;SDS011;41754;51.498;7.540;2022-09-09T07:19:14;4.13;;;1.30;;
16189;SDS011;41754;51.498;7.540;2022-09-09T07:21:43;4.30;;;1.50;;
16189;SDS011;41754;51.498;7.540;2022-09-09T07:24:14;5.27;;;1.47;;
16189;SDS011;41754;51.498;7.540;2022-09-09T07:26:42;6.35;;;1.60;;
16189;SDS011;41754;51.498;7.540;2022-09-09T07:29:13;3.10;;;1.27;;
16189;SDS011;41754;51.498;7.540;2022-09-09T07:31:46;4.15;;;1.55;;
16189;SDS011;41754;51.498;7.540;2022-09-09T07:34:20;3.17;;;1.10;;
16189;SDS011;41754;51.498;7.540;2022-09-09T07:36:48;3.90;;;1.63;;
16189;SDS011;41754;51.498;7.540;2022-09-09T07:39:17;3.47;;;1.30;;
16189;SDS011;41754;51.498;7.540;2022-09-09T07:41:48;4.38;;;1.80;;
16189;SDS011;41754;51.498;7.540;2022-09-09T07:44:22;4.57;;;1.30;;
16189;SDS011;41754;51.498;7.540;2022-09-09T07:46:58;3.40;;;1.33;;
16189;SDS011;41754;51.498;7.540;2022-09-09T07:49:32;3.63;;;1.40;;
16189;SDS011;41754;51.498;7.540;2022-09-09T07:52:03;2.60;;;1.10;;
16189;SDS011;41754;51.498;7.540;2022-09-09T07:54:35;3.55;;;1.52;;
16189;SDS011;41754;51.498;7.540;2022-09-09T07:57:05;3.47;;;1.23;;
16189;SDS011;41754;51.498;7.540;2022-09-09T07:59:36;4.18;;;1.38;;
16189;SDS011;41754;51.498;7.540;2022-09-09T08:02:04;4.50;;;1.52;;
16189;SDS011;41754;51.498;7.540;2022-09-09T08:04:34;3.75;;;1.20;;
16189;SDS011;41754;51.498;7.540;2022-09-09T08:07:02;3.70;;;1.48;;
16189;SDS011;41754;51.498;7.540;2022-09-09T08:09:37;5.93;;;1.50;;
16189;SDS011;41754;51.498;7.540;2022-09-09T08:12:11;5.55;;;1.60;;
16189;SDS011;41754;51.498;7.540;2022-09-09T08:14:41;5.93;;;1.80;;
16189;SDS011;41754;51.498;7.540;2022-09-09T08:17:09;4.60;;;1.67;;
16189;SDS011;41754;51.498;7.540;2022-09-09T08:19:37;3.55;;;1.40;;
16189;SDS011;41754;51.498;7.540;2022-09-09T08:22:12;5.82;;;1.70;;
16189;SDS011;41754;51.498;7.540;2022-09-09T08:24:40;4.07;;;1.40;;
16189;SDS011;41754;51.498;7.540;2022-09-09T08:27:08;4.93;;;1.55;;
16189;SDS011;41754;51.498;7.540;2022-09-09T08:29:37;5.13;;;1.63;;
16189;SDS011;41754;51.498;7.540;2022-09-09T08:32:07;5.10;;;1.70;;
16189;SDS011;41754;51.498;7.540;2022-09-09T08:34:37;3.60;;;1.50;;
16189;SDS011;41754;51.498;7.540;2022-09-09T08:37:16;3.90;;;1.52;;
16189;SDS011;41754;51.498;7.540;2022-09-09T08:39:45;5.97;;;1.60;;
16189;SDS011;41754;51.498;7.540;2022-09-09T08:42:28;5.05;;;1.60;;
16189;SDS011;41754;51.498;7.540;2022-09-09T08:45:09;4.00;;;1.30;;
16189;SDS011;41754;51.498;7.540;2022-09-09T08:48:06;4.43;;;1.60;;
16189;SDS011;41754;51.498;7.540;2022-09-09T08:50:44;4.50;;;1.42;;
16189;SDS011;41754;51.498;7.540;2022-09-09T08:53:19;4.70;;;1.77;;
16189;SDS011;41754;51.498;7.540;2022-09-09T08:55:50;6.53;;;1.67;;
16189;SDS011;41754;51.498;7.540;2022-09-09T08:58:25;4.75;;;1.33;;
16189;SDS011;41754;51.498;7.540;2022-09-09T09:01:09;4.57;;;1.50;;
16189;SDS011;41754;51.498;7.540;2022-09-09T09:04:02;6.78;;;1.55;;
16189;SDS011;41754;51.498;7.540;2022-09-09T09:06:39;5.30;;;1.50;;
16189;SDS011;41754;51.498;7.540;2022-09-09T09:09:12;5.28;;;1.60;;
16189;SDS011;41754;51.498;7.540;2022-09-09T09:11:45;4.57;;;1.48;;
16189;SDS011;41754;51.498;7.540;2022-09-09T09:14:17;4.15;;;1.30;;
16189;SDS011;41754;51.498;7.540;2022-09-09T09:16:48;4.55;;;1.50;;
16189;SDS011;41754;51.498;7.540;2022-09-09T09:19:20;4.73;;;1.60;;
16189;SDS011;41754;51.498;7.540;2022-09-09T09:21:54;4.28;;;1.67;;
16189;SDS011;41754;51.498;7.540;2022-09-09T09:24:27;4.72;;;1.40;;
16189;SDS011;41754;51.498;7.540;2022-09-09T09:27:04;4.43;;;1.42;;
16189;SDS011;41754;51.498;7.540;2022-09-09T09:29:41;4.43;;;1.33;;
16189;SDS011;41754;51.498;7.540;2022-09-09T09:32:31;4.88;;;1.40;;
16189;SDS011;41754;51.498;7.540;2022-09-09T09:35:06;3.45;;;1.30;;
16189;SDS011;41754;51.498;7.540;2022-09-09T09:37:37;4.97;;;1.60;;
16189;SDS011;41754;51.498;7.540;2022-09-09T09:40:30;4.85;;;1.55;;
16189;SDS011;41754;51.498;7.540;2022-09-09T09:43:01;7.23;;;2.00;;
16189;SDS011;41754;51.498;7.540;2022-09-09T09:45:35;3.93;;;1.40;;
16189;SDS011;41754;51.498;7.540;2022-09-09T09:48:21;4.25;;;1.58;;
16189;SDS011;41754;51.498;7.540;2022-09-09T09:50:51;5.33;;;1.43;;
16189;SDS011;41754;51.498;7.540;2022-09-09T09:53:21;4.03;;;1.30;;
16189;SDS011;41754;51.498;7.540;2022-09-09T09:55:56;3.92;;;1.55;;
16189;SDS011;41754;51.498;7.540;2022-09-09T09:58:25;5.43;;;1.60;;
16189;SDS011;41754;51.498;7.540;2022-09-09T10:00:56;4.72;;;1.50;;
16189;SDS011;41754;51.498;7.540;2022-09-09T10:03:28;4.00;;;1.45;;
16189;SDS011;41754;51.498;7.540;2022-09-09T10:05:59;4.18;;;1.33;;
16189;SDS011;41754;51.498;7.540;2022-09-09T10:08:27;5.35;;;1.50;;
16189;SDS011;41754;51.498;7.540;2022-09-09T10:11:12;5.82;;;1.60;;
16189;SDS011;41754;51.498;7.540;2022-09-09T10:13:51;4.80;;;1.70;;
16189;SDS011;41754;51.498;7.540;2022-09-09T10:16:33;4.28;;;1.40;;
16189;SDS011;41754;51.498;7.540;2022-09-09T10:19:09;5.70;;;1.40;;
16189;SDS011;41754;51.498;7.540;2022-09-09T10:21:51;3.22;;;1.38;;
16189;SDS011;41754;51.498;7.540;2022-09-09T10:25:02;5.72;;;1.73;;
16189;SDS011;41754;51.498;7.540;2022-09-09T10:27:42;3.83;;;1.50;;
16189;SDS011;41754;51.498;7.540;2022-09-09T10:30:23;4.40;;;1.55;;
16189;SDS011;41754;51.498;7.540;2022-09-09T10:32:53;4.25;;;1.40;;
16189;SDS011;41754;51.498;7.540;2022-09-09T10:35:27;5.35;;;1.48;;
16189;SDS011;41754;51.498;7.540;2022-09-09T10:38:09;2.80;;;1.30;;
16189;SDS011;41754;51.498;7.540;2022-09-09T10:40:42;4.03;;;1.13;;
16189;SDS011;41754;51.498;7.540;2022-09-09T10:43:15;4.35;;;1.10;;
16189;SDS011;41754;51.498;7.540;2022-09-09T10:45:55;4.07;;;1.30;;
16189;SDS011;41754;51.498;7.540;2022-09-09T10:48:36;3.47;;;1.27;;
16189;SDS011;41754;51.498;7.540;2022-09-09T10:51:18;2.97;;;1.27;;
16189;SDS011;41754;51.498;7.540;2022-09-09T10:53:56;4.68;;;1.42;;
16189;SDS011;41754;51.498;7.540;2022-09-09T10:56:34;2.95;;;1.20;;
16189;SDS011;41754;51.498;7.540;2022-09-09T10:59:03;3.38;;;1.45;;
16189;SDS011;41754;51.498;7.540;2022-09-09T11:01:35;3.75;;;1.27;;
16189;SDS011;41754;51.498;7.540;2022-09-09T11:04:05;3.87;;;1.20;;
16189;SDS011;41754;51.498;7.540;2022-09-09T11:06:38;4.88;;;1.38;;
16189;SDS011;41754;51.498;7.540;2022-09-09T11:09:14;3.03;;;0.90;;
16189;SDS011;41754;51.498;7.540;2022-09-09T11:11:45;4.43;;;1.00;;
16189;SDS011;41754;51.498;7.540;2022-09-09T11:14:15;2.28;;;1.00;;
16189;SDS011;41754;51.498;7.540;2022-09-09T11:16:48;4.97;;;1.20;;
16189;SDS011;41754;51.498;7.540;2022-09-09T11:19:19;2.50;;;1.02;;
16189;SDS011;41754;51.498;7.540;2022-09-09T11:21:52;3.17;;;1.10;;
16189;SDS011;41754;51.498;7.540;2022-09-09T11:24:23;2.70;;;1.00;;
16189;SDS011;41754;51.498;7.540;2022-09-09T11:26:54;3.03;;;1.30;;
16189;SDS011;41754;51.498;7.540;2022-09-09T11:29:28;4.13;;;1.20;;
16189;SDS011;41754;51.498;7.540;2022-09-09T11:32:28;3.50;;;1.20;;
16189;SDS011;41754;51.498;7.540;2022-09-09T11:35:21;3.78;;;1.20;;
16189;SDS011;41754;51.498;7.540;2022-09-09T11:38:01;3.45;;;1.30;;
16189;SDS011;41754;51.498;7.540;2022-09-09T11:40:38;3.33;;;1.30;;
16189;SDS011;41754;51.498;7.540;2022-09-09T11:43:09;3.03;;;1.30;;
16189;SDS011;41754;51.498;7.540;2022-09-09T11:45:39;3.05;;;1.15;;
16189;SDS011;41754;51.498;7.540;2022-09-09T11:48:20;2.10;;;0.90;;
16189;SDS011;41754;51.498;7.540;2022-09-09T11:50:57;3.08;;;1.20;;
16189;SDS011;41754;51.498;7.540;2022-09-09T11:53:26;4.33;;;1.07;;
16189;SDS011;41754;51.498;7.540;2022-09-09T11:56:03;2.45;;;0.93;;
16189;SDS011;41754;51.498;7.540;2022-09-09T11:58:44;2.95;;;1.10;;
16189;SDS011;41754;51.498;7.540;2022-09-09T12:01:26;3.70;;;1.00;;
16189;SDS011;41754;51.498;7.540;2022-09-09T12:04:01;3.03;;;0.88;;
16189;SDS011;41754;51.498;7.540;2022-09-09T12:06:41;2.17;;;0.80;;
16189;SDS011;41754;51.498;7.540;2022-09-09T12:09:17;2.17;;;1.03;;
16189;SDS011;41754;51.498;7.540;2022-09-09T12:11:50;2.45;;;0.90;;
16189;SDS011;41754;51.498;7.540;2022-09-09T12:14:19;2.70;;;1.10;;
16189;SDS011;41754;51.498;7.540;2022-09-09T12:16:49;2.35;;;0.95;;
16189;SDS011;41754;51.498;7.540;2022-09-09T12:19:18;1.90;;;0.98;;
16189;SDS011;41754;51.498;7.540;2022-09-09T12:21:54;2.53;;;1.00;;
16189;SDS011;41754;51.498;7.540;2022-09-09T12:24:29;3.33;;;1.00;;
16189;SDS011;41754;51.498;7.540;2022-09-09T12:27:02;2.63;;;0.95;;
16189;SDS011;41754;51.498;7.540;2022-09-09T12:29:36;2.78;;;1.00;;
16189;SDS011;41754;51.498;7.540;2022-09-09T12:32:08;3.33;;;0.90;;
16189;SDS011;41754;51.498;7.540;2022-09-09T12:34:38;2.50;;;0.90;;
16189;SDS011;41754;51.498;7.540;2022-09-09T12:37:12;1.77;;;0.90;;
16189;SDS011;41754;51.498;7.540;2022-09-09T12:39:45;3.20;;;1.00;;
16189;SDS011;41754;51.498;7.540;2022-09-09T12:42:18;5.88;;;1.45;;
16189;SDS011;41754;51.498;7.540;2022-09-09T12:44:56;1.88;;;0.93;;
16189;SDS011;41754;51.498;7.540;2022-09-09T12:47:26;2.65;;;1.13;;
16189;SDS011;41754;51.498;7.540;2022-09-09T12:50:01;3.00;;;1.00;;
16189;SDS011;41754;51.498;7.540;2022-09-09T12:52:30;4.85;;;1.00;;
16189;SDS011;41754;51.498;7.540;2022-09-09T12:55:00;4.68;;;1.27;;
16189;SDS011;41754;51.498;7.540;2022-09-09T12:57:32;3.83;;;1.20;;
16189;SDS011;41754;51.498;7.540;2022-09-09T13:00:06;2.60;;;1.20;;
16189;SDS011;41754;51.498;7.540;2022-09-09T13:02:44;2.63;;;1.10;;
16189;SDS011;41754;51.498;7.540;2022-09-09T13:05:15;3.17;;;1.10;;
16189;SDS011;41754;51.498;7.540;2022-09-09T13:07:44;3.90;;;1.13;;
16189;SDS011;41754;51.498;7.540;2022-09-09T13:10:12;4.45;;;1.20;;
16189;SDS011;41754;51.498;7.540;2022-09-09T13:12:57;4.30;;;1.08;;
16189;SDS011;41754;51.498;7.540;2022-09-09T13:15:26;3.05;;;1.17;;
16189;SDS011;41754;51.498;7.540;2022-09-09T13:17:56;4.55;;;1.25;;
16189;SDS011;41754;51.498;7.540;2022-09-09T13:20:27;4.32;;;1.30;;
16189;SDS011;41754;51.498;7.540;2022-09-09T13:22:57;3.28;;;1.10;;
16189;SDS011;41754;51.498;7.540;2022-09-09T13:25:26;2.33;;;1.00;;
16189;SDS011;41754;51.498;7.540;2022-09-09T13:27:59;2.10;;;1.00;;
16189;SDS011;41754;51.498;7.540;2022-09-09T13:30:29;4.00;;;1.13;;
16189;SDS011;41754;51.498;7.540;2022-09-09T13:35:49;3.72;;;1.27;;
16189;SDS011;41754;51.498;7.540;2022-09-09T13:38:19;3.28;;;1.27;;
16189;SDS011;41754;51.498;7.540;2022-09-09T13:40:53;3.25;;;1.33;;
16189;SDS011;41754;51.498;7.540;2022-09-09T13:43:25;4.73;;;1.10;;
16189;SDS011;41754;51.498;7.540;2022-09-09T13:45:54;3.80;;;1.33;;
16189;SDS011;41754;51.498;7.540;2022-09-09T13:48:24;5.35;;;1.33;;
16189;SDS011;41754;51.498;7.540;2022-09-09T13:50:56;3.00;;;1.23;;
16189;SDS011;41754;51.498;7.540;2022-09-09T13:53:25;2.93;;;1.40;;
16189;SDS011;41754;51.498;7.540;2022-09-09T13:55:53;5.97;;;1.10;;
16189;SDS011;41754;51.498;7.540;2022-09-09T13:58:24;3.08;;;1.33;;
16189;SDS011;41754;51.498;7.540;2022-09-09T14:00:52;2.33;;;1.00;;
16189;SDS011;41754;51.498;7.540;2022-09-09T14:03:20;2.20;;;1.00;;
16189;SDS011;41754;51.498;7.540;2022-09-09T14:05:48;2.47;;;1.00;;
16189;SDS011;41754;51.498;7.540;2022-09-09T14:08:25;3.47;;;1.10;;
16189;SDS011;41754;51.498;7.540;2022-09-09T14:10:55;3.38;;;1.05;;
16189;SDS011;41754;51.498;7.540;2022-09-09T14:13:28;2.78;;;1.05;;
16189;SDS011;41754;51.498;7.540;2022-09-09T14:15:56;2.70;;;1.13;;
16189;SDS011;41754;51.498;7.540;2022-09-09T14:18:24;2.90;;;1.00;;
16189;SDS011;41754;51.498;7.540;2022-09-09T14:20:52;4.07;;;1.10;;
16189;SDS011;41754;51.498;7.540;2022-09-09T14:23:20;3.17;;;1.10;;
16189;SDS011;41754;51.498;7.540;2022-09-09T14:25:50;2.70;;;1.10;;
16189;SDS011;41754;51.498;7.540;2022-09-09T14:28:18;3.38;;;1.40;;
16189;SDS011;41754;51.498;7.540;2022-09-09T14:31:07;3.40;;;1.30;;
16189;SDS011;41754;51.498;7.540;2022-09-09T14:33:36;3.42;;;1.13;;
16189;SDS011;41754;51.498;7.540;2022-09-09T14:36:04;3.50;;;1.20;;
16189;SDS011;41754;51.498;7.540;2022-09-09T14:38:33;2.35;;;1.23;;
16189;SDS011;41754;51.498;7.540;2022-09-09T14:41:05;5.22;;;1.15;;
16189;SDS011;41754;51.498;7.540;2022-09-09T14:43:33;3.35;;;1.25;;
16189;SDS011;41754;51.498;7.540;2022-09-09T14:46:04;4.15;;;1.40;;
16189;SDS011;41754;51.498;7.540;2022-09-09T14:48:34;2.88;;;1.38;;
16189;SDS011;41754;51.498;7.540;2022-09-09T14:51:06;3.47;;;1.33;;
16189;SDS011;41754;51.498;7.540;2022-09-09T14:53:34;2.97;;;0.95;;
16189;SDS011;41754;51.498;7.540;2022-09-09T14:56:03;2.70;;;1.10;;
16189;SDS011;41754;51.498;7.540;2022-09-09T14:58:32;2.38;;;1.20;;
16189;SDS011;41754;51.498;7.540;2022-09-09T15:01:04;3.67;;;1.20;;
16189;SDS011;41754;51.498;7.540;2022-09-09T15:03:34;2.55;;;0.85;;
16189;SDS011;41754;51.498;7.540;2022-09-09T15:06:07;4.15;;;1.15;;
16189;SDS011;41754;51.498;7.540;2022-09-09T15:08:35;2.97;;;1.20;;
16189;SDS011;41754;51.498;7.540;2022-09-09T15:11:08;2.50;;;1.30;;
16189;SDS011;41754;51.498;7.540;2022-09-09T15:13:37;3.38;;;1.27;;
16189;SDS011;41754;51.498;7.540;2022-09-09T15:16:07;3.53;;;1.25;;
16189;SDS011;41754;51.498;7.540;2022-09-09T15:18:37;4.78;;;1.50;;
16189;SDS011;41754;51.498;7.540;2022-09-09T15:21:06;2.38;;;1.20;;
16189;SDS011;41754;51.498;7.540;2022-09-09T15:23:34;2.70;;;0.98;;
16189;SDS011;41754;51.498;7.540;2022-09-09T15:26:02;4.13;;;1.40;;